sensor_id;sensor_type;location;lat;lon;timestamp;temperature;humidity
46458;DHT22;32155;54.076;12.092;2023-04-03T00:01:20;0.10;99.90
46458;DHT22;32155;54.076;12.092;2023-04-03T00:03:46;0.00;99.90
46458;DHT22;32155;54.076;12.092;2023-04-03T00:06:15;0.00;99.90
46458;DHT22;32155;54.076;12.092;2023-04-03T00:08:41;0.00;99.90
46458;DHT22;32155;54.076;12.092;2023-04-03T00:11:10;0.00;99.90
46458;DHT22;32155;54.076;12.092;2023-04-03T00:13:36;0.00;99.90
46458;DHT22;32155;54.076;12.092;2023-04-03T00:16:03;-0.10;99.90
46458;DHT22;32155;54.076;12.092;2023-04-03T00:18:31;-0.10;99.90
46458;DHT22;32155;54.076;12.092;2023-04-03T00:21:02;-0.10;99.90
46458;DHT22;32155;54.076;12.092;2023-04-03T00:23:30;-0.10;99.90
46458;DHT22;32155;54.076;12.092;2023-04-03T00:25:56;-0.10;99.90
46458;DHT22;32155;54.076;12.092;2023-04-03T00:28:22;-0.10;99.90
46458;DHT22;32155;54.076;12.092;2023-04-03T00:30:51;-0.20;99.90
46458;DHT22;32155;54.076;12.092;2023-04-03T00:33:17;-0.20;99.90
46458;DHT22;32155;54.076;12.092;2023-04-03T00:35:43;-0.20;99.90
46458;DHT22;32155;54.076;12.092;2023-04-03T00:38:09;-0.20;99.90
46458;DHT22;32155;54.076;12.092;2023-04-03T00:40:41;-0.20;99.90
46458;DHT22;32155;54.076;12.092;2023-04-03T00:43:20;-0.20;99.90
46458;DHT22;32155;54.076;12.092;2023-04-03T00:45:54;-0.20;99.90
46458;DHT22;32155;54.076;12.092;2023-04-03T00:48:33;-0.20;99.90
46458;DHT22;32155;54.076;12.092;2023-04-03T00:51:04;-0.20;99.90
46458;DHT22;32155;54.076;12.092;2023-04-03T00:53:38;-0.30;99.90
46458;DHT22;32155;54.076;12.092;2023-04-03T00:56:07;-0.20;99.90
46458;DHT22;32155;54.076;12.092;2023-04-03T00:58:40;-0.30;99.90
46458;DHT22;32155;54.076;12.092;2023-04-03T01:01:10;-0.20;99.90
46458;DHT22;32155;54.076;12.092;2023-04-03T01:03:40;-0.20;99.90
46458;DHT22;32155;54.076;12.092;2023-04-03T01:06:05;-0.30;99.90
46458;DHT22;32155;54.076;12.092;2023-04-03T01:08:31;-0.20;99.90
46458;DHT22;32155;54.076;12.092;2023-04-03T01:10:57;-0.20;99.90
46458;DHT22;32155;54.076;12.092;2023-04-03T01:13:31;-0.20;99.90
46458;DHT22;32155;54.076;12.092;2023-04-03T01:16:01;-0.20;99.90
46458;DHT22;32155;54.076;12.092;2023-04-03T01:18:27;-0.30;99.90
46458;DHT22;32155;54.076;12.092;2023-04-03T01:23:27;-0.20;99.90
46458;DHT22;32155;54.076;12.092;2023-04-03T01:25:57;-0.20;99.90
46458;DHT22;32155;54.076;12.092;2023-04-03T01:28:26;-0.30;99.90
46458;DHT22;32155;54.076;12.092;2023-04-03T01:33:46;-0.30;99.90
46458;DHT22;32155;54.076;12.092;2023-04-03T01:36:21;-0.30;99.90
46458;DHT22;32155;54.076;12.092;2023-04-03T01:38:48;-0.30;99.90
46458;DHT22;32155;54.076;12.092;2023-04-03T01:41:16;-0.30;99.90
46458;DHT22;32155;54.076;12.092;2023-04-03T01:43:43;-0.30;99.90
46458;DHT22;32155;54.076;12.092;2023-04-03T01:46:11;-0.30;99.90
46458;DHT22;32155;54.076;12.092;2023-04-03T01:48:37;-0.30;99.90
46458;DHT22;32155;54.076;12.092;2023-04-03T01:51:02;-0.30;99.90
46458;DHT22;32155;54.076;12.092;2023-04-03T01:53:28;-0.30;99.90
46458;DHT22;32155;54.076;12.092;2023-04-03T01:55:56;-0.30;99.90
46458;DHT22;32155;54.076;12.092;2023-04-03T01:58:21;-0.40;99.90
46458;DHT22;32155;54.076;12.092;2023-04-03T02:00:50;-0.30;99.90
46458;DHT22;32155;54.076;12.092;2023-04-03T02:03:16;-0.40;99.90
46458;DHT22;32155;54.076;12.092;2023-04-03T02:05:45;-0.40;99.90
46458;DHT22;32155;54.076;12.092;2023-04-03T02:08:11;-0.40;99.90
46458;DHT22;32155;54.076;12.092;2023-04-03T02:10:40;-0.40;99.90
46458;DHT22;32155;54.076;12.092;2023-04-03T02:13:06;-0.40;99.90
46458;DHT22;32155;54.076;12.092;2023-04-03T02:15:32;-0.40;99.90
46458;DHT22;32155;54.076;12.092;2023-04-03T02:18:00;-0.40;99.90
46458;DHT22;32155;54.076;12.092;2023-04-03T02:20:25;-0.40;99.90
46458;DHT22;32155;54.076;12.092;2023-04-03T02:22:53;-0.40;99.90
46458;DHT22;32155;54.076;12.092;2023-04-03T02:25:19;-0.40;99.90
46458;DHT22;32155;54.076;12.092;2023-04-03T02:27:45;-0.40;99.90
46458;DHT22;32155;54.076;12.092;2023-04-03T02:30:11;-0.40;99.90
46458;DHT22;32155;54.076;12.092;2023-04-03T02:32:38;-0.40;99.90
46458;DHT22;32155;54.076;12.092;2023-04-03T02:35:06;-0.40;99.90
46458;DHT22;32155;54.076;12.092;2023-04-03T02:37:32;-0.40;99.90
46458;DHT22;32155;54.076;12.092;2023-04-03T02:39:58;-0.50;99.90
46458;DHT22;32155;54.076;12.092;2023-04-03T02:42:26;-0.50;99.90
46458;DHT22;32155;54.076;12.092;2023-04-03T02:44:54;-0.50;99.90
46458;DHT22;32155;54.076;12.092;2023-04-03T02:47:20;-0.40;99.90
46458;DHT22;32155;54.076;12.092;2023-04-03T02:49:46;-0.40;99.90
46458;DHT22;32155;54.076;12.092;2023-04-03T02:52:16;-0.50;99.90
46458;DHT22;32155;54.076;12.092;2023-04-03T02:54:43;-0.50;99.90
46458;DHT22;32155;54.076;12.092;2023-04-03T02:57:09;-0.60;99.90
46458;DHT22;32155;54.076;12.092;2023-04-03T02:59:40;-0.50;99.90
46458;DHT22;32155;54.076;12.092;2023-04-03T03:02:10;-0.50;99.90
46458;DHT22;32155;54.076;12.092;2023-04-03T03:04:36;-0.50;99.90
46458;DHT22;32155;54.076;12.092;2023-04-03T03:07:04;-0.50;99.90
46458;DHT22;32155;54.076;12.092;2023-04-03T03:09:30;-0.50;99.90
46458;DHT22;32155;54.076;12.092;2023-04-03T03:11:56;-0.50;99.90
46458;DHT22;32155;54.076;12.092;2023-04-03T03:14:22;-0.40;99.90
46458;DHT22;32155;54.076;12.092;2023-04-03T03:16:48;-0.50;99.90
46458;DHT22;32155;54.076;12.092;2023-04-03T03:19:16;-0.40;99.90
46458;DHT22;32155;54.076;12.092;2023-04-03T03:21:42;-0.50;99.90
46458;DHT22;32155;54.076;12.092;2023-04-03T03:24:10;-0.50;99.90
46458;DHT22;32155;54.076;12.092;2023-04-03T03:26:37;-0.50;99.90
46458;DHT22;32155;54.076;12.092;2023-04-03T03:29:02;-0.50;99.90
46458;DHT22;32155;54.076;12.092;2023-04-03T03:31:30;-0.50;99.90
46458;DHT22;32155;54.076;12.092;2023-04-03T03:33:56;-0.50;99.90
46458;DHT22;32155;54.076;12.092;2023-04-03T03:36:21;-0.50;99.90
46458;DHT22;32155;54.076;12.092;2023-04-03T03:38:47;-0.50;99.90
46458;DHT22;32155;54.076;12.092;2023-04-03T03:41:13;-0.50;99.90
46458;DHT22;32155;54.076;12.092;2023-04-03T03:43:41;-0.60;99.90
46458;DHT22;32155;54.076;12.092;2023-04-03T03:46:08;-0.60;99.90
46458;DHT22;32155;54.076;12.092;2023-04-03T03:48:34;-0.60;99.90
46458;DHT22;32155;54.076;12.092;2023-04-03T03:51:00;-0.60;99.90
46458;DHT22;32155;54.076;12.092;2023-04-03T03:53:25;-0.60;99.90
46458;DHT22;32155;54.076;12.092;2023-04-03T03:55:51;-0.60;99.90
46458;DHT22;32155;54.076;12.092;2023-04-03T03:58:19;-0.60;99.90
46458;DHT22;32155;54.076;12.092;2023-04-03T04:00:44;-0.60;99.90
46458;DHT22;32155;54.076;12.092;2023-04-03T04:03:13;-0.60;99.90
46458;DHT22;32155;54.076;12.092;2023-04-03T04:05:38;-0.60;99.90
46458;DHT22;32155;54.076;12.092;2023-04-03T04:08:04;-0.60;99.90
46458;DHT22;32155;54.076;12.092;2023-04-03T04:10:33;-0.60;99.90
46458;DHT22;32155;54.076;12.092;2023-04-03T04:12:59;-0.60;99.90
46458;DHT22;32155;54.076;12.092;2023-04-03T04:15:25;-0.60;99.90
46458;DHT22;32155;54.076;12.092;2023-04-03T04:17:51;-0.60;99.90
46458;DHT22;32155;54.076;12.092;2023-04-03T04:20:19;-0.60;99.90
46458;DHT22;32155;54.076;12.092;2023-04-03T04:22:45;-0.50;99.90
46458;DHT22;32155;54.076;12.092;2023-04-03T04:25:10;-0.60;99.90
46458;DHT22;32155;54.076;12.092;2023-04-03T04:27:36;-0.50;99.90
46458;DHT22;32155;54.076;12.092;2023-04-03T04:30:04;-0.50;99.90
46458;DHT22;32155;54.076;12.092;2023-04-03T04:32:30;-0.50;99.90
46458;DHT22;32155;54.076;12.092;2023-04-03T04:34:56;-0.50;99.90
46458;DHT22;32155;54.076;12.092;2023-04-03T04:37:21;-0.50;99.90
46458;DHT22;32155;54.076;12.092;2023-04-03T04:39:47;-0.50;99.90
46458;DHT22;32155;54.076;12.092;2023-04-03T04:42:12;-0.50;99.90
46458;DHT22;32155;54.076;12.092;2023-04-03T04:44:39;-0.50;99.90
46458;DHT22;32155;54.076;12.092;2023-04-03T04:47:04;-0.50;99.90
46458;DHT22;32155;54.076;12.092;2023-04-03T04:49:30;-0.50;99.90
46458;DHT22;32155;54.076;12.092;2023-04-03T04:51:58;-0.50;99.90
46458;DHT22;32155;54.076;12.092;2023-04-03T04:54:24;-0.40;99.90
46458;DHT22;32155;54.076;12.092;2023-04-03T04:56:49;-0.40;99.90
46458;DHT22;32155;54.076;12.092;2023-04-03T04:59:16;-0.40;99.90
46458;DHT22;32155;54.076;12.092;2023-04-03T05:01:42;-0.30;99.90
46458;DHT22;32155;54.076;12.092;2023-04-03T05:04:07;-0.30;99.90
46458;DHT22;32155;54.076;12.092;2023-04-03T05:06:34;-0.20;99.90
46458;DHT22;32155;54.076;12.092;2023-04-03T05:09:00;0.00;99.90
46458;DHT22;32155;54.076;12.092;2023-04-03T05:11:26;0.00;99.90
46458;DHT22;32155;54.076;12.092;2023-04-03T05:13:52;0.00;99.90
46458;DHT22;32155;54.076;12.092;2023-04-03T05:16:17;0.00;99.90
46458;DHT22;32155;54.076;12.092;2023-04-03T05:18:45;0.00;99.90
46458;DHT22;32155;54.076;12.092;2023-04-03T05:21:11;0.10;99.90
46458;DHT22;32155;54.076;12.092;2023-04-03T05:23:36;0.20;99.90
46458;DHT22;32155;54.076;12.092;2023-04-03T05:26:04;0.30;99.90
46458;DHT22;32155;54.076;12.092;2023-04-03T05:28:32;0.30;99.90
46458;DHT22;32155;54.076;12.092;2023-04-03T05:31:00;0.50;99.90
46458;DHT22;32155;54.076;12.092;2023-04-03T05:33:26;0.60;99.90
46458;DHT22;32155;54.076;12.092;2023-04-03T05:35:53;0.90;99.90
46458;DHT22;32155;54.076;12.092;2023-04-03T05:38:19;1.20;99.90
46458;DHT22;32155;54.076;12.092;2023-04-03T05:40:46;1.40;99.90
46458;DHT22;32155;54.076;12.092;2023-04-03T05:43:12;1.60;99.90
46458;DHT22;32155;54.076;12.092;2023-04-03T05:45:40;2.00;99.90
46458;DHT22;32155;54.076;12.092;2023-04-03T05:48:05;2.40;99.90
46458;DHT22;32155;54.076;12.092;2023-04-03T05:50:31;2.80;99.90
46458;DHT22;32155;54.076;12.092;2023-04-03T05:52:59;3.30;99.90
46458;DHT22;32155;54.076;12.092;2023-04-03T05:55:25;3.70;99.90
46458;DHT22;32155;54.076;12.092;2023-04-03T05:57:51;4.10;99.90
46458;DHT22;32155;54.076;12.092;2023-04-03T06:00:17;4.50;99.90
46458;DHT22;32155;54.076;12.092;2023-04-03T06:02:45;4.90;99.90
46458;DHT22;32155;54.076;12.092;2023-04-03T06:05:10;5.10;99.90
46458;DHT22;32155;54.076;12.092;2023-04-03T06:07:37;5.50;99.90
46458;DHT22;32155;54.076;12.092;2023-04-03T06:10:03;5.70;99.90
46458;DHT22;32155;54.076;12.092;2023-04-03T06:12:29;5.80;99.90
46458;DHT22;32155;54.076;12.092;2023-04-03T06:14:55;6.20;99.90
46458;DHT22;32155;54.076;12.092;2023-04-03T06:17:21;6.70;99.90
46458;DHT22;32155;54.076;12.092;2023-04-03T06:19:54;7.00;99.90
46458;DHT22;32155;54.076;12.092;2023-04-03T06:22:32;7.30;99.90
46458;DHT22;32155;54.076;12.092;2023-04-03T06:25:01;7.60;99.90
46458;DHT22;32155;54.076;12.092;2023-04-03T06:27:28;7.80;99.90
46458;DHT22;32155;54.076;12.092;2023-04-03T06:29:56;8.10;99.90
46458;DHT22;32155;54.076;12.092;2023-04-03T06:32:22;8.50;99.90
46458;DHT22;32155;54.076;12.092;2023-04-03T06:34:49;8.40;99.90
46458;DHT22;32155;54.076;12.092;2023-04-03T06:37:22;8.80;99.90
46458;DHT22;32155;54.076;12.092;2023-04-03T06:39:51;9.10;99.90
46458;DHT22;32155;54.076;12.092;2023-04-03T06:42:17;9.50;99.90
46458;DHT22;32155;54.076;12.092;2023-04-03T06:44:47;9.40;99.90
46458;DHT22;32155;54.076;12.092;2023-04-03T06:47:14;9.60;99.90
46458;DHT22;32155;54.076;12.092;2023-04-03T06:49:43;9.40;99.90
46458;DHT22;32155;54.076;12.092;2023-04-03T06:52:11;9.80;99.90
46458;DHT22;32155;54.076;12.092;2023-04-03T06:54:48;10.20;99.90
46458;DHT22;32155;54.076;12.092;2023-04-03T06:57:16;10.60;99.90
46458;DHT22;32155;54.076;12.092;2023-04-03T06:59:43;11.20;99.90
46458;DHT22;32155;54.076;12.092;2023-04-03T07:02:11;11.50;99.90
46458;DHT22;32155;54.076;12.092;2023-04-03T07:04:38;11.80;99.90
46458;DHT22;32155;54.076;12.092;2023-04-03T07:07:09;11.40;99.90
46458;DHT22;32155;54.076;12.092;2023-04-03T07:09:44;11.40;99.90
46458;DHT22;32155;54.076;12.092;2023-04-03T07:12:12;11.80;99.90
46458;DHT22;32155;54.076;12.092;2023-04-03T07:14:41;12.00;99.90
46458;DHT22;32155;54.076;12.092;2023-04-03T07:17:09;12.30;99.90
46458;DHT22;32155;54.076;12.092;2023-04-03T07:19:35;12.90;99.90
46458;DHT22;32155;54.076;12.092;2023-04-03T07:22:00;13.20;99.90
46458;DHT22;32155;54.076;12.092;2023-04-03T07:24:29;13.70;99.90
46458;DHT22;32155;54.076;12.092;2023-04-03T07:26:55;13.20;99.90
46458;DHT22;32155;54.076;12.092;2023-04-03T07:29:21;13.90;99.90
46458;DHT22;32155;54.076;12.092;2023-04-03T07:31:53;14.80;99.90
46458;DHT22;32155;54.076;12.092;2023-04-03T07:34:21;14.80;98.40
46458;DHT22;32155;54.076;12.092;2023-04-03T07:36:50;15.60;96.90
46458;DHT22;32155;54.076;12.092;2023-04-03T07:39:15;16.20;95.30
46458;DHT22;32155;54.076;12.092;2023-04-03T07:41:41;16.80;94.00
46458;DHT22;32155;54.076;12.092;2023-04-03T07:44:06;17.70;92.30
46458;DHT22;32155;54.076;12.092;2023-04-03T07:46:35;17.40;88.90
46458;DHT22;32155;54.076;12.092;2023-04-03T07:49:03;16.90;86.60
46458;DHT22;32155;54.076;12.092;2023-04-03T07:51:31;16.70;89.20
46458;DHT22;32155;54.076;12.092;2023-04-03T07:53:56;16.00;86.60
46458;DHT22;32155;54.076;12.092;2023-04-03T07:56:22;16.90;87.70
46458;DHT22;32155;54.076;12.092;2023-04-03T07:58:48;17.80;88.10
46458;DHT22;32155;54.076;12.092;2023-04-03T08:01:23;18.90;83.70
46458;DHT22;32155;54.076;12.092;2023-04-03T08:03:58;19.20;82.70
46458;DHT22;32155;54.076;12.092;2023-04-03T08:06:40;19.70;77.60
46458;DHT22;32155;54.076;12.092;2023-04-03T08:09:48;19.90;76.10
46458;DHT22;32155;54.076;12.092;2023-04-03T08:12:31;19.60;75.20
46458;DHT22;32155;54.076;12.092;2023-04-03T08:15:08;20.20;73.00
46458;DHT22;32155;54.076;12.092;2023-04-03T08:17:47;17.00;72.00
46458;DHT22;32155;54.076;12.092;2023-04-03T08:20:15;18.60;70.70
46458;DHT22;32155;54.076;12.092;2023-04-03T08:22:44;19.60;67.80
46458;DHT22;32155;54.076;12.092;2023-04-03T08:25:10;20.00;66.50
46458;DHT22;32155;54.076;12.092;2023-04-03T08:27:37;18.40;66.70
46458;DHT22;32155;54.076;12.092;2023-04-03T08:30:04;17.90;70.00
46458;DHT22;32155;54.076;12.092;2023-04-03T08:32:30;16.50;73.90
46458;DHT22;32155;54.076;12.092;2023-04-03T08:34:56;17.60;71.50
46458;DHT22;32155;54.076;12.092;2023-04-03T08:37:21;15.70;73.30
46458;DHT22;32155;54.076;12.092;2023-04-03T08:39:52;16.70;75.30
46458;DHT22;32155;54.076;12.092;2023-04-03T08:45:13;15.50;70.90
46458;DHT22;32155;54.076;12.092;2023-04-03T08:48:26;17.90;72.80
46458;DHT22;32155;54.076;12.092;2023-04-03T08:50:41;17.30;67.70
46458;DHT22;32155;54.076;12.092;2023-04-03T08:53:16;13.90;75.80
46458;DHT22;32155;54.076;12.092;2023-04-03T08:55:47;15.10;76.00
46458;DHT22;32155;54.076;12.092;2023-04-03T08:58:22;13.00;78.00
46458;DHT22;32155;54.076;12.092;2023-04-03T09:03:20;15.50;74.80
46458;DHT22;32155;54.076;12.092;2023-04-03T09:05:57;19.00;68.40
46458;DHT22;32155;54.076;12.092;2023-04-03T09:08:33;16.90;67.50
46458;DHT22;32155;54.076;12.092;2023-04-03T09:14:25;22.10;60.30
46458;DHT22;32155;54.076;12.092;2023-04-03T09:16:35;21.00;59.10
46458;DHT22;32155;54.076;12.092;2023-04-03T09:22:07;21.30;57.80
46458;DHT22;32155;54.076;12.092;2023-04-03T09:24:37;21.10;57.20
46458;DHT22;32155;54.076;12.092;2023-04-03T09:27:09;20.70;57.30
46458;DHT22;32155;54.076;12.092;2023-04-03T09:29:43;16.30;59.20
46458;DHT22;32155;54.076;12.092;2023-04-03T09:32:33;14.40;66.80
46458;DHT22;32155;54.076;12.092;2023-04-03T09:37:44;13.30;71.10
46458;DHT22;32155;54.076;12.092;2023-04-03T09:40:32;14.20;66.70
46458;DHT22;32155;54.076;12.092;2023-04-03T09:43:02;14.30;64.50
46458;DHT22;32155;54.076;12.092;2023-04-03T09:45:36;15.10;64.90
46458;DHT22;32155;54.076;12.092;2023-04-03T09:50:34;21.80;56.40
46458;DHT22;32155;54.076;12.092;2023-04-03T09:53:06;22.30;51.40
46458;DHT22;32155;54.076;12.092;2023-04-03T09:55:33;23.20;51.00
46458;DHT22;32155;54.076;12.092;2023-04-03T09:58:27;22.40;48.60
46458;DHT22;32155;54.076;12.092;2023-04-03T10:00:59;23.90;49.30
46458;DHT22;32155;54.076;12.092;2023-04-03T10:03:35;25.80;46.30
46458;DHT22;32155;54.076;12.092;2023-04-03T10:06:03;25.20;44.80
46458;DHT22;32155;54.076;12.092;2023-04-03T10:08:34;24.80;44.70
46458;DHT22;32155;54.076;12.092;2023-04-03T10:11:15;23.20;44.30
46458;DHT22;32155;54.076;12.092;2023-04-03T10:13:53;23.90;45.80
46458;DHT22;32155;54.076;12.092;2023-04-03T10:16:58;22.60;45.40
46458;DHT22;32155;54.076;12.092;2023-04-03T10:35:44;27.20;37.20
46458;DHT22;32155;54.076;12.092;2023-04-03T10:38:42;27.80;38.00
46458;DHT22;32155;54.076;12.092;2023-04-03T10:46:36;27.20;37.40
46458;DHT22;32155;54.076;12.092;2023-04-03T10:50:02;27.90;38.20
46458;DHT22;32155;54.076;12.092;2023-04-03T10:52:37;28.90;36.70
46458;DHT22;32155;54.076;12.092;2023-04-03T10:57:53;29.50;40.00
46458;DHT22;32155;54.076;12.092;2023-04-03T11:00:26;29.80;36.60
46458;DHT22;32155;54.076;12.092;2023-04-03T11:03:03;29.80;36.00
46458;DHT22;32155;54.076;12.092;2023-04-03T11:05:49;29.80;37.40
46458;DHT22;32155;54.076;12.092;2023-04-03T11:08:39;31.20;36.10
46458;DHT22;32155;54.076;12.092;2023-04-03T11:11:15;29.90;37.50
46458;DHT22;32155;54.076;12.092;2023-04-03T11:14:11;28.80;34.90
46458;DHT22;32155;54.076;12.092;2023-04-03T11:16:45;27.40;38.80
46458;DHT22;32155;54.076;12.092;2023-04-03T11:19:21;27.10;39.10
46458;DHT22;32155;54.076;12.092;2023-04-03T11:21:57;27.60;39.00
46458;DHT22;32155;54.076;12.092;2023-04-03T11:24:31;27.90;38.30
46458;DHT22;32155;54.076;12.092;2023-04-03T11:26:59;26.20;38.00
46458;DHT22;32155;54.076;12.092;2023-04-03T11:29:31;28.10;35.90
46458;DHT22;32155;54.076;12.092;2023-04-03T11:32:17;28.70;36.20
46458;DHT22;32155;54.076;12.092;2023-04-03T11:34:56;29.40;33.90
46458;DHT22;32155;54.076;12.092;2023-04-03T11:37:38;29.80;33.20
46458;DHT22;32155;54.076;12.092;2023-04-03T11:42:52;28.80;32.50
46458;DHT22;32155;54.076;12.092;2023-04-03T11:45:27;27.70;33.60
46458;DHT22;32155;54.076;12.092;2023-04-03T11:48:03;29.40;37.10
46458;DHT22;32155;54.076;12.092;2023-04-03T11:53:36;27.80;34.10
46458;DHT22;32155;54.076;12.092;2023-04-03T11:58:35;27.80;32.20
46458;DHT22;32155;54.076;12.092;2023-04-03T12:01:08;27.80;32.00
46458;DHT22;32155;54.076;12.092;2023-04-03T12:16:44;29.40;32.20
46458;DHT22;32155;54.076;12.092;2023-04-03T12:24:30;27.90;31.90
46458;DHT22;32155;54.076;12.092;2023-04-03T12:29:35;28.60;31.70
46458;DHT22;32155;54.076;12.092;2023-04-03T12:46:23;28.50;29.80
46458;DHT22;32155;54.076;12.092;2023-04-03T12:48:58;29.10;30.70
46458;DHT22;32155;54.076;12.092;2023-04-03T12:51:40;28.60;29.60
46458;DHT22;32155;54.076;12.092;2023-04-03T12:57:29;28.50;32.40
46458;DHT22;32155;54.076;12.092;2023-04-03T13:02:54;26.70;34.10
46458;DHT22;32155;54.076;12.092;2023-04-03T13:05:30;27.10;33.80
46458;DHT22;32155;54.076;12.092;2023-04-03T13:08:35;27.00;31.50
46458;DHT22;32155;54.076;12.092;2023-04-03T13:11:11;28.40;31.90
46458;DHT22;32155;54.076;12.092;2023-04-03T13:13:39;28.70;34.60
46458;DHT22;32155;54.076;12.092;2023-04-03T13:16:10;28.80;35.10
46458;DHT22;32155;54.076;12.092;2023-04-03T13:18:38;28.20;35.80
46458;DHT22;32155;54.076;12.092;2023-04-03T13:21:23;27.50;37.10
46458;DHT22;32155;54.076;12.092;2023-04-03T13:24:20;26.60;36.90
46458;DHT22;32155;54.076;12.092;2023-04-03T13:29:42;26.00;38.00
46458;DHT22;32155;54.076;12.092;2023-04-03T13:32:19;26.00;36.90
46458;DHT22;32155;54.076;12.092;2023-04-03T13:34:54;25.80;38.50
46458;DHT22;32155;54.076;12.092;2023-04-03T13:37:29;26.20;38.10
46458;DHT22;32155;54.076;12.092;2023-04-03T13:42:31;26.80;38.10
46458;DHT22;32155;54.076;12.092;2023-04-03T13:45:23;26.60;38.30
46458;DHT22;32155;54.076;12.092;2023-04-03T13:56:47;25.30;39.60
46458;DHT22;32155;54.076;12.092;2023-04-03T13:59:34;24.60;40.10
46458;DHT22;32155;54.076;12.092;2023-04-03T14:02:10;23.60;40.70
46458;DHT22;32155;54.076;12.092;2023-04-03T14:07:03;23.70;40.80
46458;DHT22;32155;54.076;12.092;2023-04-03T14:09:29;23.00;41.50
46458;DHT22;32155;54.076;12.092;2023-04-03T14:12:06;22.90;41.20
46458;DHT22;32155;54.076;12.092;2023-04-03T14:14:51;23.10;41.60
46458;DHT22;32155;54.076;12.092;2023-04-03T14:17:41;22.60;41.40
46458;DHT22;32155;54.076;12.092;2023-04-03T14:20:35;22.50;41.10
46458;DHT22;32155;54.076;12.092;2023-04-03T14:27:42;21.20;42.60
46458;DHT22;32155;54.076;12.092;2023-04-03T14:37:29;20.30;43.60
46458;DHT22;32155;54.076;12.092;2023-04-03T14:40:31;20.00;44.10
46458;DHT22;32155;54.076;12.092;2023-04-03T14:43:08;20.30;44.30
46458;DHT22;32155;54.076;12.092;2023-04-03T14:45:38;19.50;45.00
46458;DHT22;32155;54.076;12.092;2023-04-03T14:51:48;19.10;45.90
46458;DHT22;32155;54.076;12.092;2023-04-03T14:54:21;18.00;48.40
46458;DHT22;32155;54.076;12.092;2023-04-03T14:56:51;17.50;48.80
46458;DHT22;32155;54.076;12.092;2023-04-03T14:59:20;16.50;49.70
46458;DHT22;32155;54.076;12.092;2023-04-03T15:01:50;16.30;51.20
46458;DHT22;32155;54.076;12.092;2023-04-03T15:04:20;15.90;51.70
46458;DHT22;32155;54.076;12.092;2023-04-03T15:06:47;15.60;52.40
46458;DHT22;32155;54.076;12.092;2023-04-03T15:09:22;15.30;52.70
46458;DHT22;32155;54.076;12.092;2023-04-03T15:11:52;13.60;55.90
46458;DHT22;32155;54.076;12.092;2023-04-03T15:14:18;12.00;58.40
46458;DHT22;32155;54.076;12.092;2023-04-03T15:16:46;11.10;61.50
46458;DHT22;32155;54.076;12.092;2023-04-03T15:19:15;10.60;63.80
46458;DHT22;32155;54.076;12.092;2023-04-03T15:21:43;10.20;65.70
46458;DHT22;32155;54.076;12.092;2023-04-03T15:24:09;9.80;67.50
46458;DHT22;32155;54.076;12.092;2023-04-03T15:26:38;9.70;68.30
46458;DHT22;32155;54.076;12.092;2023-04-03T15:29:24;9.50;69.00
46458;DHT22;32155;54.076;12.092;2023-04-03T15:31:50;9.10;70.60
46458;DHT22;32155;54.076;12.092;2023-04-03T15:34:18;8.90;70.90
46458;DHT22;32155;54.076;12.092;2023-04-03T15:36:46;8.80;70.40
46458;DHT22;32155;54.076;12.092;2023-04-03T15:39:12;8.70;69.10
46458;DHT22;32155;54.076;12.092;2023-04-03T15:41:38;8.60;65.30
46458;DHT22;32155;54.076;12.092;2023-04-03T15:44:03;8.30;64.90
46458;DHT22;32155;54.076;12.092;2023-04-03T15:46:29;8.30;65.60
46458;DHT22;32155;54.076;12.092;2023-04-03T15:48:57;8.30;65.40
46458;DHT22;32155;54.076;12.092;2023-04-03T15:51:23;8.10;66.00
46458;DHT22;32155;54.076;12.092;2023-04-03T15:53:48;7.90;65.80
46458;DHT22;32155;54.076;12.092;2023-04-03T15:56:51;7.80;67.60
46458;DHT22;32155;54.076;12.092;2023-04-03T16:03:36;7.20;68.00
46458;DHT22;32155;54.076;12.092;2023-04-03T16:06:28;7.10;68.50
46458;DHT22;32155;54.076;12.092;2023-04-03T16:08:57;7.10;67.30
46458;DHT22;32155;54.076;12.092;2023-04-03T16:11:24;7.00;68.80
46458;DHT22;32155;54.076;12.092;2023-04-03T16:14:01;6.90;70.80
46458;DHT22;32155;54.076;12.092;2023-04-03T16:16:41;6.90;71.60
46458;DHT22;32155;54.076;12.092;2023-04-03T16:19:11;6.80;72.00
46458;DHT22;32155;54.076;12.092;2023-04-03T16:21:44;6.70;73.00
46458;DHT22;32155;54.076;12.092;2023-04-03T16:24:13;6.60;74.30
46458;DHT22;32155;54.076;12.092;2023-04-03T16:26:42;6.50;74.50
46458;DHT22;32155;54.076;12.092;2023-04-03T16:29:42;6.50;74.10
46458;DHT22;32155;54.076;12.092;2023-04-03T16:32:19;6.50;75.80
46458;DHT22;32155;54.076;12.092;2023-04-03T16:38:02;6.30;76.80
46458;DHT22;32155;54.076;12.092;2023-04-03T16:51:42;5.90;79.10
46458;DHT22;32155;54.076;12.092;2023-04-03T17:05:25;5.50;82.20
46458;DHT22;32155;54.076;12.092;2023-04-03T17:44:53;4.20;91.80
46458;DHT22;32155;54.076;12.092;2023-04-03T17:48:00;4.20;92.70
46458;DHT22;32155;54.076;12.092;2023-04-03T17:57:23;3.90;97.30
46458;DHT22;32155;54.076;12.092;2023-04-03T18:00:16;3.80;99.20
46458;DHT22;32155;54.076;12.092;2023-04-03T18:09:42;3.50;99.90
46458;DHT22;32155;54.076;12.092;2023-04-03T18:12:36;3.50;99.90
46458;DHT22;32155;54.076;12.092;2023-04-03T18:15:48;3.50;99.90
46458;DHT22;32155;54.076;12.092;2023-04-03T18:18:14;3.40;99.90
46458;DHT22;32155;54.076;12.092;2023-04-03T18:20:43;3.40;99.90
46458;DHT22;32155;54.076;12.092;2023-04-03T18:23:08;3.30;99.90
46458;DHT22;32155;54.076;12.092;2023-04-03T18:25:36;3.20;99.90
46458;DHT22;32155;54.076;12.092;2023-04-03T18:28:21;3.30;99.90
46458;DHT22;32155;54.076;12.092;2023-04-03T18:31:06;3.20;99.90
46458;DHT22;32155;54.076;12.092;2023-04-03T18:33:35;3.10;99.90
46458;DHT22;32155;54.076;12.092;2023-04-03T18:36:04;3.00;99.90
46458;DHT22;32155;54.076;12.092;2023-04-03T18:38:29;3.00;99.90
46458;DHT22;32155;54.076;12.092;2023-04-03T18:40:55;3.00;99.90
46458;DHT22;32155;54.076;12.092;2023-04-03T18:43:22;3.00;99.90
46458;DHT22;32155;54.076;12.092;2023-04-03T18:45:48;2.90;99.90
46458;DHT22;32155;54.076;12.092;2023-04-03T18:48:18;3.00;99.90
46458;DHT22;32155;54.076;12.092;2023-04-03T18:50:47;2.90;99.90
46458;DHT22;32155;54.076;12.092;2023-04-03T18:53:13;2.90;99.90
46458;DHT22;32155;54.076;12.092;2023-04-03T18:55:39;2.90;99.90
46458;DHT22;32155;54.076;12.092;2023-04-03T18:58:05;2.90;99.90
46458;DHT22;32155;54.076;12.092;2023-04-03T19:00:33;2.80;99.90
46458;DHT22;32155;54.076;12.092;2023-04-03T19:02:59;2.70;99.90
46458;DHT22;32155;54.076;12.092;2023-04-03T19:05:32;2.70;99.90
46458;DHT22;32155;54.076;12.092;2023-04-03T19:07:58;2.50;99.90
46458;DHT22;32155;54.076;12.092;2023-04-03T19:10:36;2.50;99.90
46458;DHT22;32155;54.076;12.092;2023-04-03T19:13:06;2.50;99.90